sensor_id;sensor_type;location;lat;lon;timestamp;P1;durP1;ratioP1;P2;durP2;ratioP2
44366;SDS011;30086;57.660;12.000;2022-08-18T00:00:42;26.52;;;19.77;;
44366;SDS011;30086;57.660;12.000;2022-08-18T00:03:09;23.67;;;19.15;;
44366;SDS011;30086;57.660;12.000;2022-08-18T00:05:35;23.60;;;18.67;;
44366;SDS011;30086;57.660;12.000;2022-08-18T00:08:02;22.13;;;17.95;;
44366;SDS011;30086;57.660;12.000;2022-08-18T00:10:29;22.55;;;17.85;;
44366;SDS011;30086;57.660;12.000;2022-08-18T00:12:55;23.23;;;18.30;;
44366;SDS011;30086;57.660;12.000;2022-08-18T00:15:21;22.35;;;16.38;;
44366;SDS011;30086;57.660;12.000;2022-08-18T00:17:47;25.15;;;16.00;;
44366;SDS011;30086;57.660;12.000;2022-08-18T00:20:14;21.48;;;15.30;;
44366;SDS011;30086;57.660;12.000;2022-08-18T00:22:41;16.65;;;13.65;;
44366;SDS011;30086;57.660;12.000;2022-08-18T00:25:09;20.13;;;14.07;;
44366;SDS011;30086;57.660;12.000;2022-08-18T00:27:35;18.27;;;12.60;;
44366;SDS011;30086;57.660;12.000;2022-08-18T00:30:03;20.42;;;11.85;;
44366;SDS011;30086;57.660;12.000;2022-08-18T00:32:30;22.35;;;12.65;;
44366;SDS011;30086;57.660;12.000;2022-08-18T00:35:03;20.75;;;12.15;;
44366;SDS011;30086;57.660;12.000;2022-08-18T00:37:29;18.52;;;9.75;;
44366;SDS011;30086;57.660;12.000;2022-08-18T00:39:57;16.55;;;9.30;;
44366;SDS011;30086;57.660;12.000;2022-08-18T00:42:26;12.48;;;7.88;;
44366;SDS011;30086;57.660;12.000;2022-08-18T00:44:52;15.65;;;9.65;;
44366;SDS011;30086;57.660;12.000;2022-08-18T00:47:18;18.05;;;9.63;;
44366;SDS011;30086;57.660;12.000;2022-08-18T00:49:44;18.83;;;9.23;;
44366;SDS011;30086;57.660;12.000;2022-08-18T00:52:12;12.55;;;8.10;;
44366;SDS011;30086;57.660;12.000;2022-08-18T00:54:38;14.73;;;6.68;;
44366;SDS011;30086;57.660;12.000;2022-08-18T00:57:06;11.10;;;6.55;;
44366;SDS011;30086;57.660;12.000;2022-08-18T00:59:35;14.10;;;4.63;;
44366;SDS011;30086;57.660;12.000;2022-08-18T01:02:03;15.45;;;5.25;;
44366;SDS011;30086;57.660;12.000;2022-08-18T01:04:36;14.88;;;5.55;;
44366;SDS011;30086;57.660;12.000;2022-08-18T01:07:08;12.05;;;4.07;;
44366;SDS011;30086;57.660;12.000;2022-08-18T01:09:36;9.53;;;3.97;;
44366;SDS011;30086;57.660;12.000;2022-08-18T01:12:02;18.05;;;4.25;;
44366;SDS011;30086;57.660;12.000;2022-08-18T01:14:28;12.48;;;4.03;;
44366;SDS011;30086;57.660;12.000;2022-08-18T01:16:54;8.85;;;4.63;;
44366;SDS011;30086;57.660;12.000;2022-08-18T01:19:39;6.65;;;4.00;;
44366;SDS011;30086;57.660;12.000;2022-08-18T01:22:26;12.02;;;4.18;;
44366;SDS011;30086;57.660;12.000;2022-08-18T01:24:54;15.93;;;4.22;;
44366;SDS011;30086;57.660;12.000;2022-08-18T01:27:40;10.20;;;4.03;;
44366;SDS011;30086;57.660;12.000;2022-08-18T01:30:08;12.45;;;4.65;;
44366;SDS011;30086;57.660;12.000;2022-08-18T01:32:34;12.48;;;4.30;;
44366;SDS011;30086;57.660;12.000;2022-08-18T01:35:00;9.93;;;4.50;;
44366;SDS011;30086;57.660;12.000;2022-08-18T01:37:26;13.40;;;4.53;;
44366;SDS011;30086;57.660;12.000;2022-08-18T01:39:54;13.25;;;4.70;;
44366;SDS011;30086;57.660;12.000;2022-08-18T01:42:20;10.70;;;3.97;;
44366;SDS011;30086;57.660;12.000;2022-08-18T01:44:47;10.10;;;3.53;;
44366;SDS011;30086;57.660;12.000;2022-08-18T01:47:15;15.20;;;3.70;;
44366;SDS011;30086;57.660;12.000;2022-08-18T01:49:43;12.80;;;3.63;;
44366;SDS011;30086;57.660;12.000;2022-08-18T01:52:10;10.93;;;3.80;;
44366;SDS011;30086;57.660;12.000;2022-08-18T01:54:36;9.10;;;3.50;;
44366;SDS011;30086;57.660;12.000;2022-08-18T01:57:05;13.90;;;3.97;;
44366;SDS011;30086;57.660;12.000;2022-08-18T01:59:31;12.85;;;3.92;;
44366;SDS011;30086;57.660;12.000;2022-08-18T02:01:59;8.20;;;3.38;;
44366;SDS011;30086;57.660;12.000;2022-08-18T02:04:26;8.32;;;3.72;;
44366;SDS011;30086;57.660;12.000;2022-08-18T02:06:53;10.25;;;3.70;;
44366;SDS011;30086;57.660;12.000;2022-08-18T02:09:20;10.95;;;3.08;;
44366;SDS011;30086;57.660;12.000;2022-08-18T02:11:46;8.68;;;3.33;;
44366;SDS011;30086;57.660;12.000;2022-08-18T02:14:12;11.18;;;3.10;;
44366;SDS011;30086;57.660;12.000;2022-08-18T02:16:38;8.35;;;3.03;;
44366;SDS011;30086;57.660;12.000;2022-08-18T02:19:04;10.63;;;3.65;;
44366;SDS011;30086;57.660;12.000;2022-08-18T02:21:30;10.13;;;3.63;;
44366;SDS011;30086;57.660;12.000;2022-08-18T02:23:56;6.45;;;2.63;;
44366;SDS011;30086;57.660;12.000;2022-08-18T02:26:22;11.30;;;4.00;;
44366;SDS011;30086;57.660;12.000;2022-08-18T02:28:48;11.27;;;3.55;;
44366;SDS011;30086;57.660;12.000;2022-08-18T02:31:15;10.07;;;3.28;;
44366;SDS011;30086;57.660;12.000;2022-08-18T02:33:42;11.27;;;3.58;;
44366;SDS011;30086;57.660;12.000;2022-08-18T02:36:08;15.13;;;3.92;;
44366;SDS011;30086;57.660;12.000;2022-08-18T02:38:36;11.60;;;3.90;;
44366;SDS011;30086;57.660;12.000;2022-08-18T02:41:03;13.48;;;4.70;;
44366;SDS011;30086;57.660;12.000;2022-08-18T02:43:30;9.75;;;4.38;;
44366;SDS011;30086;57.660;12.000;2022-08-18T02:45:56;12.35;;;4.45;;
44366;SDS011;30086;57.660;12.000;2022-08-18T02:48:22;12.25;;;4.65;;
44366;SDS011;30086;57.660;12.000;2022-08-18T02:51:02;12.23;;;4.45;;
44366;SDS011;30086;57.660;12.000;2022-08-18T02:53:28;8.52;;;3.88;;
44366;SDS011;30086;57.660;12.000;2022-08-18T02:55:54;15.25;;;5.40;;
44366;SDS011;30086;57.660;12.000;2022-08-18T02:58:21;13.90;;;5.95;;
44366;SDS011;30086;57.660;12.000;2022-08-18T03:00:47;14.20;;;6.03;;
44366;SDS011;30086;57.660;12.000;2022-08-18T03:03:13;11.57;;;4.95;;
44366;SDS011;30086;57.660;12.000;2022-08-18T03:05:39;8.88;;;5.13;;
44366;SDS011;30086;57.660;12.000;2022-08-18T03:08:05;14.63;;;6.38;;
44366;SDS011;30086;57.660;12.000;2022-08-18T03:10:30;16.40;;;6.45;;
44366;SDS011;30086;57.660;12.000;2022-08-18T03:12:56;12.77;;;5.85;;
44366;SDS011;30086;57.660;12.000;2022-08-18T03:15:23;15.82;;;6.10;;
44366;SDS011;30086;57.660;12.000;2022-08-18T03:17:49;15.10;;;5.28;;
44366;SDS011;30086;57.660;12.000;2022-08-18T03:20:15;14.35;;;6.40;;
44366;SDS011;30086;57.660;12.000;2022-08-18T03:22:41;15.60;;;6.90;;
44366;SDS011;30086;57.660;12.000;2022-08-18T03:25:07;15.70;;;7.25;;
44366;SDS011;30086;57.660;12.000;2022-08-18T03:27:34;14.30;;;6.70;;
44366;SDS011;30086;57.660;12.000;2022-08-18T03:30:00;23.30;;;7.55;;
44366;SDS011;30086;57.660;12.000;2022-08-18T03:32:28;15.90;;;7.22;;
44366;SDS011;30086;57.660;12.000;2022-08-18T03:34:54;13.57;;;6.20;;
44366;SDS011;30086;57.660;12.000;2022-08-18T03:37:20;15.65;;;6.28;;
44366;SDS011;30086;57.660;12.000;2022-08-18T03:39:46;15.65;;;7.03;;
44366;SDS011;30086;57.660;12.000;2022-08-18T03:42:15;15.05;;;8.48;;
44366;SDS011;30086;57.660;12.000;2022-08-18T03:44:41;17.67;;;8.07;;
44366;SDS011;30086;57.660;12.000;2022-08-18T03:47:08;15.20;;;7.57;;
44366;SDS011;30086;57.660;12.000;2022-08-18T03:49:35;15.00;;;7.50;;
44366;SDS011;30086;57.660;12.000;2022-08-18T03:52:01;21.00;;;8.95;;
44366;SDS011;30086;57.660;12.000;2022-08-18T03:54:29;20.17;;;9.90;;
44366;SDS011;30086;57.660;12.000;2022-08-18T03:56:58;23.80;;;9.32;;
44366;SDS011;30086;57.660;12.000;2022-08-18T03:59:24;18.65;;;8.45;;
44366;SDS011;30086;57.660;12.000;2022-08-18T04:01:51;19.75;;;8.65;;
44366;SDS011;30086;57.660;12.000;2022-08-18T04:04:19;20.80;;;9.52;;
44366;SDS011;30086;57.660;12.000;2022-08-18T04:06:56;18.13;;;8.70;;
44366;SDS011;30086;57.660;12.000;2022-08-18T04:09:23;16.77;;;8.57;;
44366;SDS011;30086;57.660;12.000;2022-08-18T04:11:50;25.77;;;9.38;;
44366;SDS011;30086;57.660;12.000;2022-08-18T04:14:17;24.88;;;9.70;;
44366;SDS011;30086;57.660;12.000;2022-08-18T04:16:43;17.77;;;9.15;;
44366;SDS011;30086;57.660;12.000;2022-08-18T04:19:10;18.63;;;8.43;;
44366;SDS011;30086;57.660;12.000;2022-08-18T04:21:38;21.85;;;9.18;;
44366;SDS011;30086;57.660;12.000;2022-08-18T04:24:05;19.40;;;9.32;;
44366;SDS011;30086;57.660;12.000;2022-08-18T04:26:37;23.45;;;8.93;;
44366;SDS011;30086;57.660;12.000;2022-08-18T04:29:04;15.02;;;8.07;;
44366;SDS011;30086;57.660;12.000;2022-08-18T04:31:30;15.88;;;7.95;;
44366;SDS011;30086;57.660;12.000;2022-08-18T04:33:57;16.70;;;8.32;;
44366;SDS011;30086;57.660;12.000;2022-08-18T04:36:23;14.00;;;8.20;;
44366;SDS011;30086;57.660;12.000;2022-08-18T04:38:49;13.48;;;7.38;;
44366;SDS011;30086;57.660;12.000;2022-08-18T04:41:16;16.73;;;7.47;;
44366;SDS011;30086;57.660;12.000;2022-08-18T04:43:42;19.88;;;7.43;;
44366;SDS011;30086;57.660;12.000;2022-08-18T04:46:08;13.88;;;8.15;;
44366;SDS011;30086;57.660;12.000;2022-08-18T04:48:38;14.50;;;7.70;;
44366;SDS011;30086;57.660;12.000;2022-08-18T04:51:13;16.90;;;7.53;;
44366;SDS011;30086;57.660;12.000;2022-08-18T04:53:39;13.57;;;8.15;;
44366;SDS011;30086;57.660;12.000;2022-08-18T04:56:19;19.92;;;7.95;;
44366;SDS011;30086;57.660;12.000;2022-08-18T04:58:49;11.40;;;7.05;;
44366;SDS011;30086;57.660;12.000;2022-08-18T05:01:17;17.25;;;7.88;;
44366;SDS011;30086;57.660;12.000;2022-08-18T05:03:43;17.65;;;7.93;;
44366;SDS011;30086;57.660;12.000;2022-08-18T05:06:09;18.30;;;8.63;;
44366;SDS011;30086;57.660;12.000;2022-08-18T05:08:36;14.93;;;8.15;;
44366;SDS011;30086;57.660;12.000;2022-08-18T05:11:02;19.23;;;10.15;;
44366;SDS011;30086;57.660;12.000;2022-08-18T05:13:28;24.92;;;10.63;;
44366;SDS011;30086;57.660;12.000;2022-08-18T05:15:54;27.55;;;13.27;;
44366;SDS011;30086;57.660;12.000;2022-08-18T05:18:21;29.88;;;12.02;;
44366;SDS011;30086;57.660;12.000;2022-08-18T05:20:51;22.52;;;13.38;;
44366;SDS011;30086;57.660;12.000;2022-08-18T05:23:18;29.23;;;15.30;;
44366;SDS011;30086;57.660;12.000;2022-08-18T05:25:44;34.30;;;16.08;;
44366;SDS011;30086;57.660;12.000;2022-08-18T05:28:10;28.40;;;12.05;;
44366;SDS011;30086;57.660;12.000;2022-08-18T05:30:37;25.45;;;12.20;;
44366;SDS011;30086;57.660;12.000;2022-08-18T05:33:05;28.63;;;16.23;;
44366;SDS011;30086;57.660;12.000;2022-08-18T05:41:02;30.75;;;19.20;;
44366;SDS011;30086;57.660;12.000;2022-08-18T05:43:30;34.22;;;21.83;;
44366;SDS011;30086;57.660;12.000;2022-08-18T05:45:56;44.25;;;25.73;;
44366;SDS011;30086;57.660;12.000;2022-08-18T05:48:22;42.25;;;26.77;;
44366;SDS011;30086;57.660;12.000;2022-08-18T05:50:48;47.13;;;28.15;;
44366;SDS011;30086;57.660;12.000;2022-08-18T05:53:15;48.60;;;29.33;;
44366;SDS011;30086;57.660;12.000;2022-08-18T05:56:05;46.70;;;28.35;;
44366;SDS011;30086;57.660;12.000;2022-08-18T05:58:57;45.85;;;26.38;;
44366;SDS011;30086;57.660;12.000;2022-08-18T06:01:28;44.92;;;26.05;;
44366;SDS011;30086;57.660;12.000;2022-08-18T06:06:25;44.15;;;26.15;;
44366;SDS011;30086;57.660;12.000;2022-08-18T06:09:11;44.72;;;26.05;;
44366;SDS011;30086;57.660;12.000;2022-08-18T06:11:37;41.57;;;26.93;;
44366;SDS011;30086;57.660;12.000;2022-08-18T06:14:03;39.42;;;26.55;;
44366;SDS011;30086;57.660;12.000;2022-08-18T06:16:38;40.97;;;25.55;;
44366;SDS011;30086;57.660;12.000;2022-08-18T06:21:45;44.17;;;25.45;;
44366;SDS011;30086;57.660;12.000;2022-08-18T06:26:47;39.28;;;23.92;;
44366;SDS011;30086;57.660;12.000;2022-08-18T06:32:14;36.17;;;24.17;;
44366;SDS011;30086;57.660;12.000;2022-08-18T06:35:01;42.63;;;25.48;;
44366;SDS011;30086;57.660;12.000;2022-08-18T06:39:56;42.70;;;27.27;;
44366;SDS011;30086;57.660;12.000;2022-08-18T06:42:23;41.53;;;27.75;;
44366;SDS011;30086;57.660;12.000;2022-08-18T06:45:16;53.17;;;29.58;;
44366;SDS011;30086;57.660;12.000;2022-08-18T06:47:59;48.08;;;28.00;;
44366;SDS011;30086;57.660;12.000;2022-08-18T06:50:42;43.38;;;28.02;;
44366;SDS011;30086;57.660;12.000;2022-08-18T06:55:40;41.88;;;26.85;;
44366;SDS011;30086;57.660;12.000;2022-08-18T07:00:41;44.65;;;28.17;;
44366;SDS011;30086;57.660;12.000;2022-08-18T07:03:21;45.70;;;26.83;;
44366;SDS011;30086;57.660;12.000;2022-08-18T07:05:59;41.90;;;25.80;;
44366;SDS011;30086;57.660;12.000;2022-08-18T07:08:33;36.53;;;25.63;;
44366;SDS011;30086;57.660;12.000;2022-08-18T07:11:11;38.08;;;24.98;;
44366;SDS011;30086;57.660;12.000;2022-08-18T07:13:39;36.05;;;24.40;;
44366;SDS011;30086;57.660;12.000;2022-08-18T07:16:30;33.30;;;23.17;;
44366;SDS011;30086;57.660;12.000;2022-08-18T07:19:13;31.83;;;23.45;;
44366;SDS011;30086;57.660;12.000;2022-08-18T07:21:40;36.25;;;25.33;;
44366;SDS011;30086;57.660;12.000;2022-08-18T07:24:08;33.85;;;23.73;;
44366;SDS011;30086;57.660;12.000;2022-08-18T07:26:58;33.78;;;24.73;;
44366;SDS011;30086;57.660;12.000;2022-08-18T07:29:22;34.13;;;24.23;;
44366;SDS011;30086;57.660;12.000;2022-08-18T07:31:48;36.72;;;25.48;;
44366;SDS011;30086;57.660;12.000;2022-08-18T07:34:21;36.45;;;25.80;;
44366;SDS011;30086;57.660;12.000;2022-08-18T07:36:54;39.15;;;26.13;;
44366;SDS011;30086;57.660;12.000;2022-08-18T07:39:39;39.88;;;26.80;;
44366;SDS011;30086;57.660;12.000;2022-08-18T07:42:09;37.38;;;27.67;;
44366;SDS011;30086;57.660;12.000;2022-08-18T07:47:12;37.20;;;26.58;;
44366;SDS011;30086;57.660;12.000;2022-08-18T07:49:40;37.75;;;26.90;;
44366;SDS011;30086;57.660;12.000;2022-08-18T07:54:42;35.92;;;25.83;;
44366;SDS011;30086;57.660;12.000;2022-08-18T08:02:29;42.67;;;28.25;;
44366;SDS011;30086;57.660;12.000;2022-08-18T08:05:06;34.08;;;25.33;;
44366;SDS011;30086;57.660;12.000;2022-08-18T08:07:39;40.78;;;25.77;;
44366;SDS011;30086;57.660;12.000;2022-08-18T08:25:28;27.17;;;20.80;;
44366;SDS011;30086;57.660;12.000;2022-08-18T08:30:22;28.27;;;21.00;;
44366;SDS011;30086;57.660;12.000;2022-08-18T08:38:02;22.52;;;18.10;;
44366;SDS011;30086;57.660;12.000;2022-08-18T08:40:33;23.58;;;17.60;;
44366;SDS011;30086;57.660;12.000;2022-08-18T08:45:33;22.67;;;16.50;;
44366;SDS011;30086;57.660;12.000;2022-08-18T08:50:27;21.42;;;14.90;;
44366;SDS011;30086;57.660;12.000;2022-08-18T08:53:16;18.08;;;14.30;;
44366;SDS011;30086;57.660;12.000;2022-08-18T08:55:45;17.02;;;13.30;;
44366;SDS011;30086;57.660;12.000;2022-08-18T09:00:38;24.13;;;14.25;;
44366;SDS011;30086;57.660;12.000;2022-08-18T09:08:22;16.27;;;13.77;;
44366;SDS011;30086;57.660;12.000;2022-08-18T09:24:43;12.95;;;10.68;;
44366;SDS011;30086;57.660;12.000;2022-08-18T09:27:11;14.70;;;11.10;;
44366;SDS011;30086;57.660;12.000;2022-08-18T09:29:52;12.85;;;9.75;;
44366;SDS011;30086;57.660;12.000;2022-08-18T09:37:27;10.13;;;9.15;;
44366;SDS011;30086;57.660;12.000;2022-08-18T09:39:58;10.15;;;9.13;;
44366;SDS011;30086;57.660;12.000;2022-08-18T09:48:00;10.10;;;8.45;;
44366;SDS011;30086;57.660;12.000;2022-08-18T09:53:00;9.40;;;7.78;;
44366;SDS011;30086;57.660;12.000;2022-08-18T09:55:40;9.75;;;8.15;;
44366;SDS011;30086;57.660;12.000;2022-08-18T10:01:16;10.55;;;8.27;;
44366;SDS011;30086;57.660;12.000;2022-08-18T10:03:34;8.85;;;6.68;;
44366;SDS011;30086;57.660;12.000;2022-08-18T10:06:05;8.15;;;7.20;;
44366;SDS011;30086;57.660;12.000;2022-08-18T10:08:43;7.28;;;6.57;;
44366;SDS011;30086;57.660;12.000;2022-08-18T10:11:49;13.40;;;6.82;;
44366;SDS011;30086;57.660;12.000;2022-08-18T10:14:12;7.55;;;6.40;;
44366;SDS011;30086;57.660;12.000;2022-08-18T10:16:57;7.38;;;6.68;;
44366;SDS011;30086;57.660;12.000;2022-08-18T10:24:20;9.73;;;6.38;;
44366;SDS011;30086;57.660;12.000;2022-08-18T10:29:58;7.60;;;6.07;;
44366;SDS011;30086;57.660;12.000;2022-08-18T10:37:01;8.52;;;5.68;;
44366;SDS011;30086;57.660;12.000;2022-08-18T10:39:43;6.60;;;5.82;;
44366;SDS011;30086;57.660;12.000;2022-08-18T10:42:21;9.63;;;5.85;;
44366;SDS011;30086;57.660;12.000;2022-08-18T10:44:49;7.65;;;5.82;;
44366;SDS011;30086;57.660;12.000;2022-08-18T10:47:24;7.40;;;5.97;;
44366;SDS011;30086;57.660;12.000;2022-08-18T10:49:51;5.85;;;5.28;;
44366;SDS011;30086;57.660;12.000;2022-08-18T10:59:57;9.80;;;5.90;;
44366;SDS011;30086;57.660;12.000;2022-08-18T11:05:10;8.52;;;5.95;;
44366;SDS011;30086;57.660;12.000;2022-08-18T11:07:38;6.80;;;6.20;;
44366;SDS011;30086;57.660;12.000;2022-08-18T11:10:21;8.85;;;6.43;;
44366;SDS011;30086;57.660;12.000;2022-08-18T11:15:26;6.82;;;6.13;;
44366;SDS011;30086;57.660;12.000;2022-08-18T11:18:05;6.35;;;5.75;;
44366;SDS011;30086;57.660;12.000;2022-08-18T11:20:37;5.97;;;5.38;;
44366;SDS011;30086;57.660;12.000;2022-08-18T11:23:10;7.47;;;5.72;;
44366;SDS011;30086;57.660;12.000;2022-08-18T11:25:36;6.63;;;6.00;;
44366;SDS011;30086;57.660;12.000;2022-08-18T11:28:13;6.07;;;5.47;;
44366;SDS011;30086;57.660;12.000;2022-08-18T11:30:39;6.70;;;6.00;;
44366;SDS011;30086;57.660;12.000;2022-08-18T11:33:09;6.38;;;5.75;;
44366;SDS011;30086;57.660;12.000;2022-08-18T11:35:49;6.93;;;5.68;;
44366;SDS011;30086;57.660;12.000;2022-08-18T11:38:18;6.88;;;6.22;;
44366;SDS011;30086;57.660;12.000;2022-08-18T11:40:46;7.20;;;6.50;;
44366;SDS011;30086;57.660;12.000;2022-08-18T11:43:16;7.40;;;6.22;;
44366;SDS011;30086;57.660;12.000;2022-08-18T11:48:19;7.15;;;6.00;;
44366;SDS011;30086;57.660;12.000;2022-08-18T11:56:00;6.32;;;5.72;;
44366;SDS011;30086;57.660;12.000;2022-08-18T11:58:40;6.25;;;5.20;;
44366;SDS011;30086;57.660;12.000;2022-08-18T12:01:10;7.10;;;6.40;;
44366;SDS011;30086;57.660;12.000;2022-08-18T12:03:43;6.72;;;6.00;;
44366;SDS011;30086;57.660;12.000;2022-08-18T12:06:11;7.07;;;6.38;;
44366;SDS011;30086;57.660;12.000;2022-08-18T12:08:50;8.82;;;6.38;;
44366;SDS011;30086;57.660;12.000;2022-08-18T12:11:19;7.50;;;6.80;;
44366;SDS011;30086;57.660;12.000;2022-08-18T12:13:47;8.98;;;6.28;;
44366;SDS011;30086;57.660;12.000;2022-08-18T12:16:30;9.95;;;6.25;;
44366;SDS011;30086;57.660;12.000;2022-08-18T12:18:57;12.88;;;6.50;;
44366;SDS011;30086;57.660;12.000;2022-08-18T12:21:23;7.07;;;6.32;;
44366;SDS011;30086;57.660;12.000;2022-08-18T12:23:49;10.35;;;6.43;;
44366;SDS011;30086;57.660;12.000;2022-08-18T12:26:15;8.80;;;6.57;;
44366;SDS011;30086;57.660;12.000;2022-08-18T12:28:42;7.18;;;6.30;;
44366;SDS011;30086;57.660;12.000;2022-08-18T12:31:08;6.88;;;6.18;;
44366;SDS011;30086;57.660;12.000;2022-08-18T12:33:34;6.72;;;6.03;;
44366;SDS011;30086;57.660;12.000;2022-08-18T12:36:02;7.70;;;6.00;;
44366;SDS011;30086;57.660;12.000;2022-08-18T12:38:28;6.45;;;5.85;;
44366;SDS011;30086;57.660;12.000;2022-08-18T12:40:54;8.23;;;6.13;;
44366;SDS011;30086;57.660;12.000;2022-08-18T12:43:21;6.40;;;5.78;;
44366;SDS011;30086;57.660;12.000;2022-08-18T12:45:47;6.97;;;6.30;;
44366;SDS011;30086;57.660;12.000;2022-08-18T12:48:13;7.15;;;6.40;;
44366;SDS011;30086;57.660;12.000;2022-08-18T12:50:39;8.55;;;6.10;;
44366;SDS011;30086;57.660;12.000;2022-08-18T12:53:05;10.45;;;6.43;;
44366;SDS011;30086;57.660;12.000;2022-08-18T12:55:33;7.38;;;6.68;;
44366;SDS011;30086;57.660;12.000;2022-08-18T12:58:00;6.40;;;5.80;;
44366;SDS011;30086;57.660;12.000;2022-08-18T13:00:28;6.57;;;5.97;;
44366;SDS011;30086;57.660;12.000;2022-08-18T13:02:54;7.32;;;6.25;;
44366;SDS011;30086;57.660;12.000;2022-08-18T13:05:20;6.60;;;6.00;;
44366;SDS011;30086;57.660;12.000;2022-08-18T13:07:46;6.97;;;6.38;;
44366;SDS011;30086;57.660;12.000;2022-08-18T13:10:12;6.95;;;6.25;;
44366;SDS011;30086;57.660;12.000;2022-08-18T13:12:38;6.72;;;5.47;;
44366;SDS011;30086;57.660;12.000;2022-08-18T13:15:04;7.50;;;5.70;;
44366;SDS011;30086;57.660;12.000;2022-08-18T13:17:34;6.97;;;5.18;;
44366;SDS011;30086;57.660;12.000;2022-08-18T13:20:05;6.70;;;6.00;;
44366;SDS011;30086;57.660;12.000;2022-08-18T13:22:33;8.45;;;6.28;;
44366;SDS011;30086;57.660;12.000;2022-08-18T13:25:00;7.15;;;5.88;;
44366;SDS011;30086;57.660;12.000;2022-08-18T13:27:26;10.35;;;6.90;;
44366;SDS011;30086;57.660;12.000;2022-08-18T13:29:52;7.95;;;6.28;;
44366;SDS011;30086;57.660;12.000;2022-08-18T13:32:18;5.78;;;5.18;;
44366;SDS011;30086;57.660;12.000;2022-08-18T13:34:45;7.13;;;6.20;;
44366;SDS011;30086;57.660;12.000;2022-08-18T13:37:11;5.72;;;5.13;;
44366;SDS011;30086;57.660;12.000;2022-08-18T13:39:39;6.18;;;5.68;;
44366;SDS011;30086;57.660;12.000;2022-08-18T13:42:05;7.03;;;6.18;;
44366;SDS011;30086;57.660;12.000;2022-08-18T13:44:31;10.98;;;6.65;;
44366;SDS011;30086;57.660;12.000;2022-08-18T13:46:57;9.18;;;6.00;;
44366;SDS011;30086;57.660;12.000;2022-08-18T13:49:23;7.90;;;6.53;;
44366;SDS011;30086;57.660;12.000;2022-08-18T13:51:50;7.45;;;6.68;;
44366;SDS011;30086;57.660;12.000;2022-08-18T13:54:18;8.23;;;6.95;;
44366;SDS011;30086;57.660;12.000;2022-08-18T13:56:45;10.93;;;6.80;;
44366;SDS011;30086;57.660;12.000;2022-08-18T13:59:11;7.95;;;6.68;;
44366;SDS011;30086;57.660;12.000;2022-08-18T14:01:37;12.00;;;7.40;;
44366;SDS011;30086;57.660;12.000;2022-08-18T14:04:04;7.50;;;6.72;;
44366;SDS011;30086;57.660;12.000;2022-08-18T14:06:31;8.82;;;7.45;;
44366;SDS011;30086;57.660;12.000;2022-08-18T14:08:57;9.70;;;7.70;;
44366;SDS011;30086;57.660;12.000;2022-08-18T14:11:24;9.88;;;8.68;;
44366;SDS011;30086;57.660;12.000;2022-08-18T14:13:52;9.93;;;8.27;;
44366;SDS011;30086;57.660;12.000;2022-08-18T14:16:18;11.32;;;8.48;;
44366;SDS011;30086;57.660;12.000;2022-08-18T14:18:45;10.45;;;7.28;;
44366;SDS011;30086;57.660;12.000;2022-08-18T14:21:39;8.98;;;8.00;;
44366;SDS011;30086;57.660;12.000;2022-08-18T14:24:25;9.30;;;7.68;;
44366;SDS011;30086;57.660;12.000;2022-08-18T14:27:09;13.15;;;8.02;;
44366;SDS011;30086;57.660;12.000;2022-08-18T14:29:35;9.55;;;8.57;;
44366;SDS011;30086;57.660;12.000;2022-08-18T14:32:02;16.60;;;8.60;;
44366;SDS011;30086;57.660;12.000;2022-08-18T14:34:28;9.63;;;8.27;;
44366;SDS011;30086;57.660;12.000;2022-08-18T14:36:54;10.50;;;9.05;;
44366;SDS011;30086;57.660;12.000;2022-08-18T14:39:20;10.43;;;8.95;;
44366;SDS011;30086;57.660;12.000;2022-08-18T14:41:46;11.30;;;8.55;;
44366;SDS011;30086;57.660;12.000;2022-08-18T14:44:12;9.82;;;8.90;;
44366;SDS011;30086;57.660;12.000;2022-08-18T14:46:39;11.32;;;9.35;;
44366;SDS011;30086;57.660;12.000;2022-08-18T14:49:09;10.98;;;9.02;;
44366;SDS011;30086;57.660;12.000;2022-08-18T14:51:35;12.60;;;8.95;;
44366;SDS011;30086;57.660;12.000;2022-08-18T14:54:03;10.43;;;9.43;;
44366;SDS011;30086;57.660;12.000;2022-08-18T14:56:30;9.52;;;8.15;;
44366;SDS011;30086;57.660;12.000;2022-08-18T14:58:56;11.48;;;9.18;;
44366;SDS011;30086;57.660;12.000;2022-08-18T15:01:22;11.65;;;9.68;;
44366;SDS011;30086;57.660;12.000;2022-08-18T15:03:49;9.90;;;8.82;;
44366;SDS011;30086;57.660;12.000;2022-08-18T15:06:15;12.73;;;9.73;;
44366;SDS011;30086;57.660;12.000;2022-08-18T15:08:41;14.98;;;9.43;;
44366;SDS011;30086;57.660;12.000;2022-08-18T15:11:10;10.38;;;9.27;;
44366;SDS011;30086;57.660;12.000;2022-08-18T15:13:40;12.35;;;8.77;;
44366;SDS011;30086;57.660;12.000;2022-08-18T15:16:07;10.45;;;8.85;;
44366;SDS011;30086;57.660;12.000;2022-08-18T15:18:37;12.68;;;8.43;;
44366;SDS011;30086;57.660;12.000;2022-08-18T15:21:03;8.70;;;7.80;;
44366;SDS011;30086;57.660;12.000;2022-08-18T15:23:47;9.38;;;8.30;;
44366;SDS011;30086;57.660;12.000;2022-08-18T15:26:32;8.57;;;7.35;;
44366;SDS011;30086;57.660;12.000;2022-08-18T15:28:59;8.85;;;7.95;;
44366;SDS011;30086;57.660;12.000;2022-08-18T15:31:25;8.60;;;7.47;;
44366;SDS011;30086;57.660;12.000;2022-08-18T15:33:52;10.27;;;6.47;;
44366;SDS011;30086;57.660;12.000;2022-08-18T15:36:18;8.57;;;7.78;;
44366;SDS011;30086;57.660;12.000;2022-08-18T15:38:45;9.88;;;8.05;;
44366;SDS011;30086;57.660;12.000;2022-08-18T15:41:36;10.75;;;7.75;;
44366;SDS011;30086;57.660;12.000;2022-08-18T15:44:01;9.02;;;7.20;;
44366;SDS011;30086;57.660;12.000;2022-08-18T15:46:29;9.38;;;7.18;;
44366;SDS011;30086;57.660;12.000;2022-08-18T15:48:56;7.63;;;6.80;;
44366;SDS011;30086;57.660;12.000;2022-08-18T15:51:22;9.05;;;6.75;;
44366;SDS011;30086;57.660;12.000;2022-08-18T15:53:48;7.85;;;6.30;;
44366;SDS011;30086;57.660;12.000;2022-08-18T15:56:16;8.63;;;6.75;;
44366;SDS011;30086;57.660;12.000;2022-08-18T15:58:42;9.98;;;6.90;;
44366;SDS011;30086;57.660;12.000;2022-08-18T16:01:11;7.93;;;6.45;;
44366;SDS011;30086;57.660;12.000;2022-08-18T16:03:37;7.22;;;6.38;;
44366;SDS011;30086;57.660;12.000;2022-08-18T16:06:03;7.43;;;6.30;;
44366;SDS011;30086;57.660;12.000;2022-08-18T16:08:29;7.00;;;6.30;;
44366;SDS011;30086;57.660;12.000;2022-08-18T16:10:56;8.50;;;6.80;;
44366;SDS011;30086;57.660;12.000;2022-08-18T16:13:22;8.00;;;6.95;;
44366;SDS011;30086;57.660;12.000;2022-08-18T16:15:50;8.15;;;6.57;;
44366;SDS011;30086;57.660;12.000;2022-08-18T16:18:16;7.15;;;6.07;;
44366;SDS011;30086;57.660;12.000;2022-08-18T16:20:44;7.30;;;5.78;;
44366;SDS011;30086;57.660;12.000;2022-08-18T16:23:11;6.68;;;5.28;;
44366;SDS011;30086;57.660;12.000;2022-08-18T16:25:39;6.68;;;5.97;;
44366;SDS011;30086;57.660;12.000;2022-08-18T16:28:05;7.68;;;6.20;;
44366;SDS011;30086;57.660;12.000;2022-08-18T16:30:32;7.50;;;6.03;;
44366;SDS011;30086;57.660;12.000;2022-08-18T16:33:04;6.80;;;6.10;;
44366;SDS011;30086;57.660;12.000;2022-08-18T16:35:31;8.10;;;5.85;;
44366;SDS011;30086;57.660;12.000;2022-08-18T16:38:06;7.03;;;6.28;;
44366;SDS011;30086;57.660;12.000;2022-08-18T16:40:33;10.32;;;6.18;;
44366;SDS011;30086;57.660;12.000;2022-08-18T16:42:59;10.63;;;6.72;;
44366;SDS011;30086;57.660;12.000;2022-08-18T16:45:26;6.72;;;5.93;;
44366;SDS011;30086;57.660;12.000;2022-08-18T16:47:53;7.82;;;5.93;;